createdAt,value
2022-10-08T00:01:20.181Z,3.08
2022-10-08T00:03:51.163Z,2.40
2022-10-08T00:06:24.683Z,2.75
2022-10-08T00:08:57.025Z,3.22
2022-10-08T00:11:27.924Z,2.42
2022-10-08T00:13:56.105Z,2.88
2022-10-08T00:16:30.563Z,3.55
2022-10-08T00:19:01.192Z,3.17
2022-10-08T00:21:31.460Z,2.78
2022-10-08T00:24:02.465Z,2.75
2022-10-08T00:26:39.780Z,3.20
2022-10-08T00:29:12.691Z,2.50
2022-10-08T00:31:42.386Z,3.03
2022-10-08T00:34:12.885Z,2.45
2022-10-08T00:36:40.887Z,3.17
2022-10-08T00:39:13.591Z,3.92
2022-10-08T00:41:42.053Z,2.92
2022-10-08T00:44:52.430Z,3.53
2022-10-08T00:47:37.817Z,2.80
2022-10-08T00:50:10.605Z,2.90
2022-10-08T00:53:01.280Z,2.80
2022-10-08T00:55:29.884Z,3.53
2022-10-08T00:58:02.156Z,2.75
2022-10-08T01:00:31.115Z,3.33
2022-10-08T01:02:58.762Z,2.97
2022-10-08T01:05:39.307Z,3.20
2022-10-08T01:08:12.746Z,2.83
2022-10-08T01:10:58.550Z,3.00
2022-10-08T01:13:49.768Z,3.10
2022-10-08T01:16:37.475Z,2.60
2022-10-08T01:19:07.580Z,3.25
2022-10-08T01:21:50.205Z,3.13
2022-10-08T01:24:23.331Z,3.17
2022-10-08T01:27:32.012Z,3.22
2022-10-08T01:30:05.705Z,3.00
2022-10-08T01:32:48.841Z,3.00
2022-10-08T01:35:33.224Z,2.80
2022-10-08T01:38:06.253Z,3.22
2022-10-08T01:40:36.548Z,3.70
2022-10-08T01:43:07.983Z,3.33
2022-10-08T01:45:40.545Z,3.20
2022-10-08T01:48:14.886Z,3.22
2022-10-08T01:50:53.637Z,3.60
2022-10-08T01:53:23.930Z,3.03
2022-10-08T01:55:54.552Z,3.67
2022-10-08T01:58:36.431Z,3.28
2022-10-08T02:01:15.042Z,3.35
2022-10-08T02:04:02.406Z,2.97
2022-10-08T02:06:33.388Z,3.58
2022-10-08T02:09:00.587Z,3.00
2022-10-08T02:11:27.645Z,3.30
2022-10-08T02:13:55.922Z,2.70
2022-10-08T02:16:28.929Z,3.70
2022-10-08T02:19:15.842Z,3.08
2022-10-08T02:21:45.318Z,3.80
2022-10-08T02:24:31.192Z,3.17
2022-10-08T02:27:02.555Z,3.45
2022-10-08T02:29:35.314Z,3.30
2022-10-08T02:32:17.424Z,3.88
2022-10-08T02:34:54.505Z,3.70
2022-10-08T02:37:27.960Z,3.22
2022-10-08T02:40:01.726Z,3.67
2022-10-08T02:42:31.833Z,3.50
2022-10-08T02:45:07.526Z,3.40
2022-10-08T02:47:38.492Z,3.00
2022-10-08T02:50:11.882Z,3.42
2022-10-08T02:52:42.979Z,3.47
2022-10-08T02:55:23.713Z,3.10
2022-10-08T02:57:58.274Z,3.05
2022-10-08T03:00:27.551Z,3.50
2022-10-08T03:03:07.391Z,2.97
2022-10-08T03:05:36.835Z,3.67
2022-10-08T03:08:06.821Z,3.40
2022-10-08T03:10:37.404Z,3.03
2022-10-08T03:13:04.916Z,3.92
2022-10-08T03:15:33.806Z,3.38
2022-10-08T03:18:08.697Z,2.95
2022-10-08T03:20:49.491Z,3.17
2022-10-08T03:23:19.018Z,3.30
2022-10-08T03:25:46.096Z,3.15
2022-10-08T03:28:13.278Z,3.72
2022-10-08T03:30:40.576Z,4.35
2022-10-08T03:33:07.698Z,3.85
2022-10-08T03:35:35.227Z,4.85
2022-10-08T03:38:02.391Z,4.18
2022-10-08T03:40:29.464Z,5.13
2022-10-08T03:42:56.550Z,5.10
2022-10-08T03:45:23.608Z,5.30
2022-10-08T03:47:51.899Z,4.93
2022-10-08T03:50:20.773Z,5.75
2022-10-08T03:52:48.391Z,5.65
2022-10-08T03:55:15.923Z,4.90
2022-10-08T03:57:43.033Z,4.75
2022-10-08T04:00:10.828Z,6.00
2022-10-08T04:02:38.518Z,4.43
2022-10-08T04:05:06.145Z,4.47
2022-10-08T04:07:33.192Z,4.70
2022-10-08T04:10:00.244Z,3.95
2022-10-08T04:12:28.916Z,4.50
2022-10-08T04:14:55.939Z,3.90
2022-10-08T04:17:22.983Z,3.95
2022-10-08T04:19:50.056Z,4.35
2022-10-08T04:22:17.141Z,4.25
2022-10-08T04:24:44.133Z,4.22
2022-10-08T04:27:11.101Z,3.97
2022-10-08T04:29:38.177Z,3.20
2022-10-08T04:32:05.271Z,4.20
2022-10-08T04:34:32.310Z,4.05
2022-10-08T04:36:59.414Z,3.55
2022-10-08T04:39:26.502Z,4.13
2022-10-08T04:41:53.524Z,3.95
2022-10-08T04:44:20.832Z,3.92
2022-10-08T04:46:47.896Z,3.80
2022-10-08T04:49:15.008Z,4.03
2022-10-08T04:51:42.101Z,3.83
2022-10-08T04:54:09.136Z,4.00
2022-10-08T04:56:36.568Z,3.40
2022-10-08T04:59:04.194Z,2.90
2022-10-08T05:01:32.469Z,3.67
2022-10-08T05:04:00.996Z,3.25
2022-10-08T05:06:30.052Z,3.30
2022-10-08T05:08:59.741Z,3.70
2022-10-08T05:11:27.518Z,3.80
2022-10-08T05:13:56.235Z,4.28
2022-10-08T05:16:24.421Z,3.65
2022-10-08T05:18:52.136Z,3.38
2022-10-08T05:21:22.623Z,3.53
2022-10-08T05:24:07.465Z,3.35
2022-10-08T05:29:24.387Z,3.92
2022-10-08T05:31:51.433Z,3.10
2022-10-08T05:34:18.567Z,3.92
2022-10-08T05:36:45.675Z,3.58
2022-10-08T05:39:12.746Z,3.40
2022-10-08T05:41:42.952Z,3.35
2022-10-08T05:44:11.289Z,3.53
2022-10-08T05:46:39.674Z,3.80
2022-10-08T05:49:08.965Z,4.00
2022-10-08T05:51:38.354Z,3.28
2022-10-08T05:54:05.486Z,3.97
2022-10-08T05:56:32.549Z,3.30
2022-10-08T05:58:59.607Z,2.90
2022-10-08T06:01:29.121Z,3.55
2022-10-08T06:04:07.783Z,4.38
2022-10-08T06:06:40.577Z,3.65
2022-10-08T06:09:10.299Z,3.67
2022-10-08T06:11:38.231Z,4.25
2022-10-08T06:14:07.184Z,3.72
2022-10-08T06:16:35.157Z,3.83
2022-10-08T06:19:03.626Z,3.65
2022-10-08T06:21:31.917Z,3.78
2022-10-08T06:24:02.211Z,3.95
2022-10-08T06:26:36.781Z,4.07
2022-10-08T06:29:10.244Z,3.10
2022-10-08T06:31:37.491Z,3.45
2022-10-08T06:34:05.135Z,3.53
2022-10-08T06:36:33.479Z,3.95
2022-10-08T06:39:03.554Z,3.17
2022-10-08T06:41:30.828Z,3.35
2022-10-08T06:43:58.011Z,3.22
2022-10-08T06:46:25.146Z,3.67
2022-10-08T06:48:52.222Z,3.85
2022-10-08T06:51:19.541Z,3.45
2022-10-08T06:53:53.127Z,3.10
2022-10-08T06:56:21.101Z,2.80
2022-10-08T06:58:48.216Z,3.35
2022-10-08T07:01:33.383Z,3.63
2022-10-08T07:04:02.406Z,2.97
2022-10-08T07:06:29.593Z,3.30
2022-10-08T07:08:59.360Z,3.60
2022-10-08T07:11:27.414Z,3.10
2022-10-08T07:13:55.651Z,3.03
2022-10-08T07:16:25.287Z,3.30
2022-10-08T07:18:54.009Z,3.03
2022-10-08T07:21:22.556Z,2.60
2022-10-08T07:23:52.924Z,3.65
2022-10-08T07:26:22.295Z,2.75
2022-10-08T07:28:54.771Z,2.80
2022-10-08T07:31:27.436Z,3.10
2022-10-08T07:33:54.805Z,2.80
2022-10-08T07:36:23.249Z,2.75
2022-10-08T07:38:54.928Z,2.95
2022-10-08T07:41:22.623Z,3.25
2022-10-08T07:43:55.332Z,2.38
2022-10-08T07:46:22.683Z,3.03
2022-10-08T07:48:50.809Z,2.58
2022-10-08T07:51:20.105Z,3.40
2022-10-08T07:53:47.279Z,2.25
2022-10-08T07:56:17.176Z,3.08
2022-10-08T07:58:44.544Z,2.05
2022-10-08T08:01:14.718Z,2.40
2022-10-08T08:03:42.659Z,2.53
2022-10-08T08:06:15.757Z,2.63
2022-10-08T08:08:44.686Z,2.10
2022-10-08T08:11:14.299Z,2.83
2022-10-08T08:13:42.879Z,2.58
2022-10-08T08:16:18.947Z,2.38
2022-10-08T08:18:48.274Z,2.35
2022-10-08T08:21:18.562Z,2.50
2022-10-08T08:23:48.045Z,1.95
2022-10-08T08:26:22.529Z,2.58
2022-10-08T08:28:53.943Z,2.03
2022-10-08T08:31:23.916Z,2.15
2022-10-08T08:33:53.848Z,2.70
2022-10-08T08:36:25.897Z,2.15
2022-10-08T08:38:53.165Z,2.58
2022-10-08T08:41:44.708Z,2.03
2022-10-08T08:44:33.648Z,1.80
2022-10-08T08:47:06.522Z,2.92
2022-10-08T08:49:42.449Z,1.85
2022-10-08T08:52:13.228Z,2.65
2022-10-08T08:54:40.468Z,2.45
2022-10-08T08:57:32.135Z,2.33
2022-10-08T09:00:13.981Z,2.42
2022-10-08T09:02:52.116Z,2.70
2022-10-08T09:05:20.486Z,3.22
2022-10-08T09:08:05.247Z,2.42
2022-10-08T09:10:41.157Z,2.20
2022-10-08T09:13:17.739Z,2.13
2022-10-08T09:15:45.345Z,1.88
2022-10-08T09:18:16.945Z,2.33
2022-10-08T09:20:45.062Z,2.08
2022-10-08T09:23:19.308Z,2.10
2022-10-08T09:25:57.337Z,2.03
2022-10-08T09:28:49.324Z,1.75
2022-10-08T09:31:25.662Z,2.13
2022-10-08T09:33:55.907Z,1.45
2022-10-08T09:36:46.840Z,1.85
2022-10-08T09:39:22.843Z,2.10
2022-10-08T09:42:08.299Z,1.50
2022-10-08T09:44:47.252Z,1.48
2022-10-08T09:47:19.557Z,1.35
2022-10-08T09:50:02.086Z,1.13
2022-10-08T09:52:29.615Z,1.38
2022-10-08T09:55:21.365Z,1.17
2022-10-08T09:57:52.575Z,1.33
2022-10-08T10:00:28.522Z,1.25
2022-10-08T10:02:57.468Z,1.55
2022-10-08T10:05:29.856Z,1.33
2022-10-08T10:07:57.408Z,1.63
2022-10-08T10:10:33.358Z,1.38
2022-10-08T10:13:09.840Z,1.20
2022-10-08T10:16:15.764Z,1.60
2022-10-08T10:18:53.420Z,1.00
2022-10-08T10:21:31.992Z,1.30
2022-10-08T10:24:04.954Z,1.02
2022-10-08T10:26:42.025Z,1.88
2022-10-08T10:29:12.657Z,1.30
2022-10-08T10:31:57.675Z,1.50
2022-10-08T10:34:30.366Z,1.10
2022-10-08T10:37:00.162Z,1.05
2022-10-08T10:39:44.063Z,1.65
2022-10-08T10:42:17.397Z,1.02
2022-10-08T10:44:50.188Z,1.33
2022-10-08T10:47:21.619Z,1.17
2022-10-08T10:49:51.056Z,1.75
2022-10-08T10:52:50.927Z,1.55
2022-10-08T10:55:30.329Z,1.15
2022-10-08T10:58:36.397Z,1.80
2022-10-08T11:01:18.814Z,1.75
2022-10-08T11:03:51.834Z,1.10
2022-10-08T11:06:27.316Z,1.48
2022-10-08T11:09:23.219Z,0.80
2022-10-08T11:11:57.367Z,0.98
2022-10-08T11:14:52.102Z,0.70
2022-10-08T11:20:01.473Z,1.13
2022-10-08T11:22:48.332Z,0.80
2022-10-08T11:26:14.083Z,0.60
2022-10-08T11:28:45.208Z,0.50
2022-10-08T11:31:40.661Z,0.60
2022-10-08T11:34:35.629Z,0.40
2022-10-08T11:37:12.787Z,0.60
2022-10-08T11:40:00.496Z,0.65
2022-10-08T11:42:58.478Z,0.68
2022-10-08T11:45:25.938Z,0.82
2022-10-08T11:47:58.803Z,0.63
2022-10-08T11:50:38.006Z,1.00
2022-10-08T11:53:11.574Z,0.70
2022-10-08T11:55:38.860Z,0.57
2022-10-08T11:58:17.061Z,0.70
2022-10-08T12:00:46.875Z,0.77
2022-10-08T12:03:21.117Z,0.60
2022-10-08T12:05:53.151Z,0.93
2022-10-08T12:08:51.347Z,0.90
2022-10-08T12:11:37.444Z,1.00
2022-10-08T12:14:13.669Z,1.67
2022-10-08T12:16:56.034Z,0.90
2022-10-08T12:19:38.332Z,1.45
2022-10-08T12:22:28.227Z,1.00
2022-10-08T12:24:56.551Z,1.00
2022-10-08T12:27:25.053Z,1.25
2022-10-08T12:30:14.350Z,1.73
2022-10-08T12:32:41.401Z,0.93
2022-10-08T12:35:47.253Z,1.10
2022-10-08T12:38:26.495Z,1.25
2022-10-08T12:41:05.880Z,1.42
2022-10-08T12:44:00.959Z,2.17
2022-10-08T12:46:54.117Z,1.50
2022-10-08T12:49:43.521Z,1.00
2022-10-08T12:52:20.953Z,1.45
2022-10-08T12:54:55.178Z,1.15
2022-10-08T12:57:26.762Z,1.17
2022-10-08T12:59:54.220Z,1.20
2022-10-08T13:02:41.219Z,1.63
2022-10-08T13:05:36.801Z,1.40
2022-10-08T13:08:30.727Z,1.23
2022-10-08T13:11:00.418Z,1.40
2022-10-08T13:13:39.650Z,1.10
2022-10-08T13:16:16.541Z,1.38
2022-10-08T13:18:47.358Z,1.70
2022-10-08T13:21:34.181Z,1.73
2022-10-08T13:24:13.858Z,1.02
2022-10-08T13:26:55.985Z,0.88
2022-10-08T13:29:36.403Z,0.80
2022-10-08T13:32:21.803Z,0.93
2022-10-08T13:34:55.333Z,0.80
2022-10-08T13:37:22.355Z,0.90
2022-10-08T13:39:53.177Z,0.90
2022-10-08T13:42:23.457Z,0.70
2022-10-08T13:44:51.462Z,1.17
2022-10-08T13:47:21.209Z,0.80
2022-10-08T13:49:48.442Z,0.90
2022-10-08T13:52:18.664Z,1.08
2022-10-08T13:54:46.203Z,2.05
2022-10-08T13:57:14.173Z,1.63
2022-10-08T13:59:41.300Z,1.02
2022-10-08T14:02:12.529Z,1.00
2022-10-08T14:04:40.089Z,1.15
2022-10-08T14:07:20.413Z,1.05
2022-10-08T14:09:47.848Z,1.20
2022-10-08T14:12:16.796Z,1.50
2022-10-08T14:14:43.824Z,1.55
2022-10-08T14:17:10.885Z,1.40
2022-10-08T14:19:38.016Z,1.25
2022-10-08T14:22:05.077Z,1.13
2022-10-08T14:24:32.086Z,1.50
2022-10-08T14:26:59.110Z,1.77
2022-10-08T14:29:26.134Z,1.15
2022-10-08T14:31:53.242Z,1.52
2022-10-08T14:34:20.396Z,1.13
2022-10-08T14:36:47.940Z,1.00
2022-10-08T14:39:14.975Z,1.92
2022-10-08T14:41:43.996Z,1.40
2022-10-08T14:44:12.075Z,1.33
2022-10-08T14:46:39.090Z,1.50
2022-10-08T14:49:06.210Z,1.13
2022-10-08T14:51:38.489Z,1.00
2022-10-08T14:54:10.356Z,1.50
2022-10-08T14:56:42.943Z,1.02
2022-10-08T14:59:11.264Z,1.00
2022-10-08T15:01:38.748Z,2.10
2022-10-08T15:04:06.757Z,1.50
2022-10-08T15:06:34.313Z,1.90
2022-10-08T15:09:01.415Z,1.23
2022-10-08T15:11:28.497Z,2.00
2022-10-08T15:13:59.252Z,1.98
2022-10-08T15:16:26.487Z,2.17
2022-10-08T15:18:53.578Z,1.48
2022-10-08T15:21:20.792Z,1.63
2022-10-08T15:23:47.815Z,1.50
2022-10-08T15:26:17.536Z,1.63
2022-10-08T15:28:46.234Z,1.50
2022-10-08T15:31:16.262Z,1.27
2022-10-08T15:33:49.097Z,1.90
2022-10-08T15:36:24.444Z,1.90
2022-10-08T15:38:57.189Z,1.55
2022-10-08T15:41:25.346Z,1.30
2022-10-08T15:43:52.826Z,1.13
2022-10-08T15:46:22.513Z,1.55
2022-10-08T15:48:54.733Z,1.10
2022-10-08T15:51:22.972Z,1.40
2022-10-08T15:53:50.600Z,1.20
2022-10-08T15:56:17.865Z,1.58
2022-10-08T15:58:52.256Z,1.40
2022-10-08T16:01:21.933Z,1.35
2022-10-08T16:03:51.481Z,0.98
2022-10-08T16:06:21.305Z,1.02
2022-10-08T16:08:48.912Z,1.08
2022-10-08T16:11:27.462Z,1.13
2022-10-08T16:14:12.942Z,1.30
2022-10-08T16:16:40.448Z,2.60
2022-10-08T16:19:11.699Z,1.92
2022-10-08T16:21:39.598Z,2.22
2022-10-08T16:24:06.879Z,2.92
2022-10-08T16:26:35.544Z,2.45
2022-10-08T16:29:06.044Z,1.83
2022-10-08T16:31:35.331Z,2.05
2022-10-08T16:34:05.135Z,2.22
2022-10-08T16:36:34.740Z,2.22
2022-10-08T16:39:06.154Z,1.90
2022-10-08T16:41:34.702Z,2.90
2022-10-08T16:44:12.744Z,2.53
2022-10-08T16:46:45.681Z,1.90
2022-10-08T16:49:17.363Z,2.08
2022-10-08T16:51:48.865Z,1.60
2022-10-08T16:54:17.541Z,1.63
2022-10-08T16:56:46.063Z,1.83
2022-10-08T16:59:16.298Z,2.47
2022-10-08T17:01:48.324Z,2.13
2022-10-08T17:04:17.256Z,2.05
2022-10-08T17:06:44.417Z,2.58
2022-10-08T17:09:11.821Z,2.45
2022-10-08T17:11:40.262Z,1.75
2022-10-08T17:14:08.263Z,2.47
2022-10-08T17:16:36.007Z,2.72
2022-10-08T17:19:04.339Z,2.78
2022-10-08T17:21:34.700Z,3.20
2022-10-08T17:24:02.738Z,4.22
2022-10-08T17:26:31.021Z,3.78
2022-10-08T17:29:04.523Z,2.72
2022-10-08T17:31:31.983Z,2.95
2022-10-08T17:34:00.025Z,2.90
2022-10-08T17:36:32.233Z,2.70
2022-10-08T17:39:01.172Z,2.40
2022-10-08T17:41:33.840Z,3.42
2022-10-08T17:44:02.942Z,3.20
2022-10-08T17:46:32.869Z,3.25
2022-10-08T17:49:00.188Z,3.50
2022-10-08T17:51:29.232Z,3.85
2022-10-08T17:54:05.740Z,2.85
2022-10-08T17:56:33.600Z,2.80
2022-10-08T17:59:03.756Z,2.55
2022-10-08T18:01:33.689Z,2.10
2022-10-08T18:04:03.728Z,2.75
2022-10-08T18:06:32.041Z,1.98
2022-10-08T18:09:01.601Z,1.88
2022-10-08T18:11:30.381Z,1.77
2022-10-08T18:13:57.515Z,2.10
2022-10-08T18:16:27.794Z,2.33
2022-10-08T18:18:55.399Z,1.92
2022-10-08T18:21:22.420Z,1.70
2022-10-08T18:23:49.925Z,1.60
2022-10-08T18:26:18.818Z,6.15
2022-10-08T18:28:48.210Z,3.35
2022-10-08T18:31:15.824Z,2.15
2022-10-08T18:33:45.207Z,2.90
2022-10-08T18:36:16.665Z,3.70
2022-10-08T18:38:45.611Z,4.88
2022-10-08T18:41:16.915Z,5.28
2022-10-08T18:43:45.033Z,8.73
2022-10-08T18:46:13.924Z,4.97
2022-10-08T18:48:41.567Z,2.70
2022-10-08T18:51:14.569Z,2.10
2022-10-08T18:53:42.884Z,1.75
2022-10-08T18:56:15.530Z,2.97
2022-10-08T18:58:43.253Z,3.45
2022-10-08T19:01:25.422Z,3.75
2022-10-08T19:03:54.716Z,4.55
2022-10-08T19:06:24.318Z,4.10
2022-10-08T19:08:51.624Z,3.55
2022-10-08T19:11:21.556Z,3.38
2022-10-08T19:13:49.164Z,2.85
2022-10-08T19:16:16.303Z,2.20
2022-10-08T19:18:52.523Z,2.22
2022-10-08T19:21:20.472Z,1.70
2022-10-08T19:23:47.560Z,1.60
2022-10-08T19:26:15.027Z,1.40
2022-10-08T19:28:46.495Z,1.83
2022-10-08T19:31:24.463Z,2.80
2022-10-08T19:33:57.817Z,10.05
2022-10-08T19:36:26.657Z,5.80
2022-10-08T19:38:58.682Z,4.50
2022-10-08T19:41:27.005Z,4.35
2022-10-08T19:43:55.878Z,3.80
2022-10-08T19:46:24.326Z,4.03
2022-10-08T19:48:56.677Z,4.03
2022-10-08T19:51:27.689Z,3.88
2022-10-08T19:53:55.606Z,3.20
2022-10-08T19:56:22.911Z,3.50
2022-10-08T19:58:53.156Z,3.38
2022-10-08T20:01:26.089Z,3.05
2022-10-08T20:03:57.866Z,3.30
2022-10-08T20:06:27.827Z,3.10
2022-10-08T20:09:01.469Z,2.75
2022-10-08T20:11:30.192Z,2.10
2022-10-08T20:13:58.357Z,2.63
2022-10-08T20:16:31.771Z,2.30
2022-10-08T20:19:02.435Z,2.33
2022-10-08T20:21:32.537Z,2.10
2022-10-08T20:24:00.338Z,2.47
2022-10-08T20:26:29.799Z,3.20
2022-10-08T20:29:05.991Z,3.75
2022-10-08T20:31:36.373Z,2.80
2022-10-08T20:34:26.471Z,4.00
2022-10-08T20:36:54.674Z,3.53
2022-10-08T20:39:22.481Z,2.95
2022-10-08T20:41:50.567Z,3.03
2022-10-08T20:44:18.019Z,2.60
2022-10-08T20:46:45.435Z,2.88
2022-10-08T20:49:13.381Z,3.28
2022-10-08T20:51:42.190Z,2.78
2022-10-08T20:54:12.160Z,2.85
2022-10-08T20:56:40.602Z,3.33
2022-10-08T20:59:09.789Z,3.30
2022-10-08T21:01:39.606Z,2.75
2022-10-08T21:04:08.055Z,2.92
2022-10-08T21:06:42.131Z,3.15
2022-10-08T21:11:37.757Z,2.83
2022-10-08T21:14:07.835Z,2.00
2022-10-08T21:16:38.003Z,4.40
2022-10-08T21:19:10.475Z,3.20
2022-10-08T21:21:37.666Z,2.60
2022-10-08T21:24:05.357Z,2.47
2022-10-08T21:26:38.198Z,1.52
2022-10-08T21:29:08.239Z,2.20
2022-10-08T21:31:37.711Z,2.20
2022-10-08T21:34:05.777Z,1.95
2022-10-08T21:36:38.789Z,2.53
2022-10-08T21:39:07.541Z,1.35
2022-10-08T21:41:37.041Z,2.47
2022-10-08T21:44:06.466Z,2.00
2022-10-08T21:46:36.571Z,2.55
2022-10-08T21:49:10.705Z,2.38
2022-10-08T21:54:06.662Z,1.80
2022-10-08T21:56:38.505Z,2.40
2022-10-08T21:59:08.175Z,1.90
2022-10-08T22:01:44.376Z,2.10
2022-10-08T22:04:16.663Z,2.10
2022-10-08T22:06:46.834Z,2.20
2022-10-08T22:09:23.521Z,2.17
2022-10-08T22:11:52.153Z,2.20
2022-10-08T22:14:20.054Z,2.10
2022-10-08T22:16:47.494Z,2.30
2022-10-08T22:19:15.564Z,2.03
2022-10-08T22:21:43.248Z,1.85
2022-10-08T22:24:10.607Z,2.40
2022-10-08T22:26:40.574Z,3.42
2022-10-08T22:29:08.040Z,2.40
2022-10-08T22:31:36.213Z,2.20
2022-10-08T22:34:05.049Z,2.30
2022-10-08T22:36:33.422Z,1.95
2022-10-08T22:39:00.466Z,1.90
2022-10-08T22:41:30.992Z,2.05
2022-10-08T22:44:00.267Z,2.55
2022-10-08T22:46:30.546Z,2.38
2022-10-08T22:49:03.985Z,2.13
2022-10-08T22:51:31.547Z,2.15
2022-10-08T22:53:59.020Z,1.90
2022-10-08T22:56:28.758Z,1.88
2022-10-08T22:58:57.551Z,2.65
2022-10-08T23:01:26.189Z,1.83
2022-10-08T23:03:53.749Z,2.15
2022-10-08T23:06:23.817Z,2.22
2022-10-08T23:08:56.800Z,2.28
2022-10-08T23:11:24.782Z,1.95
2022-10-08T23:13:53.419Z,2.05
2022-10-08T23:16:21.017Z,2.55
2022-10-08T23:18:54.159Z,1.65
2022-10-08T23:21:21.775Z,1.70
2022-10-08T23:23:49.990Z,2.10
2022-10-08T23:26:17.841Z,1.90
2022-10-08T23:28:49.556Z,2.00
2022-10-08T23:31:18.982Z,2.28
2022-10-08T23:33:48.688Z,2.25
2022-10-08T23:36:19.005Z,1.70
2022-10-08T23:38:46.304Z,2.13
2022-10-08T23:41:16.895Z,2.47
2022-10-08T23:43:48.766Z,2.15
2022-10-08T23:46:18.477Z,2.17
2022-10-08T23:48:46.269Z,2.25
2022-10-08T23:51:14.567Z,2.33
2022-10-08T23:53:42.567Z,2.00
2022-10-08T23:56:10.807Z,1.73
2022-10-08T23:58:38.135Z,2.10
